Time;durP1;ratioP1;P1;durP2;ratioP2;P2;SDS_P1;SDS_P2;PMS_P1;PMS_P2;Temp;Humidity;BMP_temperature;BMP_pressure;BME280_temperature;BME280_humidity;BME280_pressure;Samples;Min_cycle;Max_cycle;Signal;HPM_P1;HPM_P2
2023/04/10 00:00:32;;;;;;;18.17;8.57;;;8.60;99.90;;;;;;4988561;28;20239;-44
2023/04/10 00:03:00;;;;;;;17.52;9.70;;;8.60;99.90;;;;;;4988559;28;20505;-44
2023/04/10 00:05:26;;;;;;;17.23;8.95;;;;;;;;;;4988116;28;20165;-41
2023/04/10 00:07:53;;;;;;;8.77;6.32;;;;;;;;;;4987996;28;20685;-44
2023/04/10 00:10:18;;;;;;;12.45;7.05;;;8.60;99.90;;;;;;4982124;28;20186;-43
2023/04/10 00:12:44;;;;;;;9.52;7.07;;;8.50;99.90;;;;;;4967468;28;20407;-42
2023/04/10 00:15:11;;;;;;;17.58;9.45;;;;;;;;;;4969220;28;20162;-44
2023/04/10 00:17:37;;;;;;;18.77;9.00;;;8.50;99.90;;;;;;4968721;28;20170;-44
2023/04/10 00:20:03;;;;;;;19.52;11.15;;;8.50;99.90;;;;;;4970205;28;20220;-42
2023/04/10 00:22:29;;;;;;;16.40;9.15;;;;;;;;;;4971770;28;20638;-42
2023/04/10 00:24:55;;;;;;;16.92;10.05;;;;;;;;;;4971785;28;20181;-40
2023/04/10 00:27:21;;;;;;;34.83;17.90;;;;;;;;;;4971579;28;20177;-42
2023/04/10 00:29:47;;;;;;;11.73;7.80;;;8.60;99.90;;;;;;4971703;28;20184;-41
2023/04/10 00:32:13;;;;;;;9.43;6.65;;;;;;;;;;4971880;28;20226;-41
2023/04/10 00:34:38;;;;;;;10.50;7.57;;;8.40;99.90;;;;;;4972160;28;20169;-41
2023/04/10 00:37:04;;;;;;;15.88;10.95;;;8.50;99.90;;;;;;4971863;28;20176;-43
2023/04/10 00:39:30;;;;;;;8.75;6.85;;;;;;;;;;4971625;28;20216;-41
2023/04/10 00:41:56;;;;;;;8.52;6.25;;;8.40;99.90;;;;;;4988167;28;20181;-40
2023/04/10 00:44:22;;;;;;;12.63;7.22;;;8.40;99.90;;;;;;4973064;28;20169;-41
2023/04/10 00:46:47;;;;;;;8.15;6.50;;;8.40;99.90;;;;;;4971779;28;20502;-43
2023/04/10 00:49:13;;;;;;;10.55;7.18;;;;;;;;;;4971937;28;20169;-41
2023/04/10 00:51:40;;;;;;;10.27;6.72;;;8.40;99.90;;;;;;4972503;28;20215;-43
2023/04/10 00:54:09;;;;;;;8.88;6.90;;;;;;;;;;4972110;28;20577;-41
2023/04/10 00:56:35;;;;;;;9.38;7.25;;;8.30;99.90;;;;;;4971787;28;20158;-40
2023/04/10 00:59:01;;;;;;;8.73;7.13;;;;;;;;;;4971694;28;20197;-41
2023/04/10 01:01:27;;;;;;;10.15;7.07;;;8.30;99.90;;;;;;4972825;28;20184;-41
2023/04/10 01:03:53;;;;;;;10.25;7.22;;;8.20;99.90;;;;;;4971733;28;20208;-41
2023/04/10 01:06:51;;;;;;;10.80;7.82;;;8.20;99.90;;;;;;4971936;28;20566;-40
2023/04/10 01:09:53;;;;;;;8.68;6.93;;;8.20;99.90;;;;;;4971311;28;20630;-41
2023/04/10 01:12:26;;;;;;;8.15;6.72;;;8.40;99.90;;;;;;5001039;28;20280;-41
2023/04/10 01:15:06;;;;;;;10.20;7.18;;;8.10;99.90;;;;;;4971683;28;20173;-40
2023/04/10 01:17:36;;;;;;;10.43;6.63;;;8.20;99.90;;;;;;4971630;28;20622;-40
2023/04/10 01:20:13;;;;;;;10.30;6.50;;;8.20;99.90;;;;;;4971628;28;20217;-41
2023/04/10 01:23:05;;;;;;;8.02;6.55;;;8.10;99.90;;;;;;4971757;28;20180;-41
2023/04/10 01:25:39;;;;;;;9.77;6.97;;;8.10;99.90;;;;;;4971272;28;20633;-40
2023/04/10 01:28:42;;;;;;;9.07;6.82;;;8.10;99.90;;;;;;4971516;28;20203;-41
2023/04/10 01:31:14;;;;;;;8.63;6.68;;;7.90;99.90;;;;;;4971836;28;20161;-41
2023/04/10 01:33:46;;;;;;;8.98;6.70;;;8.00;99.90;;;;;;4972015;28;20197;-41
2023/04/10 01:36:16;;;;;;;8.38;6.35;;;8.00;99.90;;;;;;4971768;28;20173;-40
2023/04/10 01:38:43;;;;;;;9.38;7.13;;;8.00;99.90;;;;;;4971639;28;20201;-42
2023/04/10 01:41:08;;;;;;;8.98;6.97;;;8.10;99.90;;;;;;4972208;28;20182;-41
2023/04/10 01:43:35;;;;;;;10.07;7.07;;;8.10;99.90;;;;;;4971428;28;20188;-41
2023/04/10 01:46:02;;;;;;;10.32;7.55;;;7.90;99.90;;;;;;4970984;28;20698;-42
2023/04/10 01:48:29;;;;;;;11.43;7.97;;;8.00;99.90;;;;;;4981246;28;20180;-41
2023/04/10 01:50:56;;;;;;;9.88;7.88;;;8.00;99.90;;;;;;4990087;28;20246;-41
2023/04/10 01:53:23;;;;;;;13.43;8.60;;;7.80;99.90;;;;;;4988642;28;20165;-41
2023/04/10 01:55:50;;;;;;;11.27;8.23;;;7.90;99.90;;;;;;4990295;28;20176;-41
2023/04/10 01:58:16;;;;;;;11.10;7.63;;;7.80;99.90;;;;;;4990199;28;20173;-41
2023/04/10 02:00:42;;;;;;;11.23;7.88;;;7.90;99.90;;;;;;4990181;28;20209;-41
2023/04/10 02:03:09;;;;;;;11.40;8.57;;;7.90;99.90;;;;;;4990724;28;20242;-40
2023/04/10 02:05:55;;;;;;;12.13;8.60;;;7.80;99.90;;;;;;4990480;28;20169;-41
2023/04/10 02:08:33;;;;;;;13.30;8.23;;;7.80;99.90;;;;;;4990121;28;20699;-41
2023/04/10 02:11:12;;;;;;;12.68;8.70;;;7.80;99.90;;;;;;4989953;28;20216;-40
2023/04/10 02:13:40;;;;;;;13.43;8.93;;;7.70;99.90;;;;;;4989975;28;20180;-41
2023/04/10 02:16:10;;;;;;;10.82;7.70;;;7.70;99.90;;;;;;4990073;28;20532;-40
2023/04/10 02:18:36;;;;;;;12.13;8.50;;;7.70;99.90;;;;;;4987226;28;20691;-42
2023/04/10 02:21:02;;;;;;;12.15;8.98;;;7.60;99.90;;;;;;4970606;28;20181;-43
2023/04/10 02:23:28;;;;;;;11.65;8.60;;;7.70;99.90;;;;;;4970731;28;20714;-43
2023/04/10 02:25:55;;;;;;;11.60;8.02;;;7.40;99.90;;;;;;4970788;28;20211;-44
2023/04/10 02:28:21;;;;;;;13.00;8.20;;;7.50;99.90;;;;;;4970858;28;20177;-43
2023/04/10 02:30:47;;;;;;;10.50;8.18;;;7.50;99.90;;;;;;4970555;28;20642;-41
2023/04/10 02:33:13;;;;;;;13.52;9.73;;;;;;;;;;4970575;28;20173;-41
2023/04/10 02:35:38;;;;;;;14.70;9.27;;;7.50;99.90;;;;;;4970977;28;20599;-43
2023/04/10 02:38:04;;;;;;;12.05;8.85;;;7.50;99.90;;;;;;4969717;28;20227;-43
2023/04/10 02:40:30;;;;;;;14.50;8.77;;;7.40;99.90;;;;;;4970560;28;20221;-41
2023/04/10 02:42:55;;;;;;;12.02;8.73;;;7.50;99.90;;;;;;4969709;28;20180;-41
2023/04/10 02:45:21;;;;;;;10.80;8.43;;;7.50;99.90;;;;;;4970131;28;20260;-41
2023/04/10 02:47:46;;;;;;;11.65;8.73;;;7.40;99.90;;;;;;4970067;28;20173;-40
2023/04/10 02:50:12;;;;;;;11.40;8.57;;;7.40;99.90;;;;;;4970423;28;20194;-40
2023/04/10 02:52:38;;;;;;;12.43;8.50;;;;;;;;;;4970460;28;20180;-41
2023/04/10 02:55:04;;;;;;;14.02;9.65;;;7.40;99.90;;;;;;4970104;28;20188;-40
2023/04/10 02:57:30;;;;;;;12.60;8.80;;;7.30;99.90;;;;;;4970255;28;20201;-40
2023/04/10 02:59:56;;;;;;;12.32;8.68;;;;;;;;;;4970178;28;20258;-41
2023/04/10 03:02:22;;;;;;;13.82;9.10;;;7.30;99.90;;;;;;4969805;28;20516;-41
2023/04/10 03:04:48;;;;;;;10.88;8.88;;;7.30;99.90;;;;;;4969861;28;20173;-40
2023/04/10 03:07:13;;;;;;;14.30;9.68;;;7.30;99.90;;;;;;4970131;28;20629;-41
2023/04/10 03:09:39;;;;;;;13.88;9.57;;;;;;;;;;4984428;28;20688;-40
2023/04/10 03:12:05;;;;;;;11.98;8.70;;;;;;;;;;4988850;28;20184;-42
2023/04/10 03:14:31;;;;;;;15.63;9.45;;;;;;;;;;4989425;28;20215;-40
2023/04/10 03:16:57;;;;;;;14.15;9.30;;;;;;;;;;4989173;28;20199;-41
2023/04/10 03:19:25;;;;;;;12.80;8.98;;;7.20;99.90;;;;;;4989267;28;20283;-40
2023/04/10 03:21:51;;;;;;;14.05;8.15;;;;;;;;;;4989188;28;20705;-41
2023/04/10 03:24:16;;;;;;;13.13;9.10;;;7.10;99.90;;;;;;4989260;28;20169;-40
2023/04/10 03:26:42;;;;;;;11.88;9.13;;;;;;;;;;4989136;28;20179;-41
2023/04/10 03:29:08;;;;;;;14.18;10.05;;;;;;;;;;4989627;28;20173;-41
2023/04/10 03:31:34;;;;;;;14.45;8.88;;;7.00;99.90;;;;;;4988889;28;20172;-40
2023/04/10 03:33:59;;;;;;;13.75;9.52;;;7.00;99.90;;;;;;4988881;28;20180;-40
2023/04/10 03:36:26;;;;;;;23.83;13.82;;;7.00;99.90;;;;;;4989116;28;20322;-41
2023/04/10 03:38:51;;;;;;;19.10;11.00;;;7.00;99.90;;;;;;4980742;28;20728;-41
2023/04/10 03:41:17;;;;;;;17.80;10.40;;;;;;;;;;4980506;28;20272;-41
2023/04/10 03:43:43;;;;;;;20.23;11.43;;;7.00;99.90;;;;;;4988691;28;20526;-41
2023/04/10 03:46:09;;;;;;;17.00;9.60;;;6.90;99.90;;;;;;4989062;28;20181;-40
2023/04/10 03:48:35;;;;;;;13.15;9.00;;;6.80;99.90;;;;;;4988960;28;20222;-40
2023/04/10 03:51:01;;;;;;;17.50;10.40;;;6.90;99.90;;;;;;4988688;28;20201;-41
2023/04/10 03:53:26;;;;;;;15.27;9.27;;;6.90;99.90;;;;;;4989587;28;20636;-40
2023/04/10 03:55:52;;;;;;;14.85;9.65;;;;;;;;;;4992154;28;20218;-41
2023/04/10 03:58:18;;;;;;;13.35;9.05;;;6.90;99.90;;;;;;4992368;28;20588;-40
2023/04/10 04:00:44;;;;;;;14.18;9.52;;;6.80;99.90;;;;;;4991907;28;20205;-40
2023/04/10 04:03:10;;;;;;;16.15;9.55;;;6.80;99.90;;;;;;4992338;28;20165;-41
2023/04/10 04:05:37;;;;;;;13.02;8.57;;;6.70;99.90;;;;;;4992162;28;20183;-40
2023/04/10 04:08:05;;;;;;;12.98;9.27;;;6.80;99.90;;;;;;4990163;28;20295;-40
2023/04/10 04:10:31;;;;;;;12.50;9.30;;;6.80;99.90;;;;;;4972726;28;20189;-40
2023/04/10 04:12:56;;;;;;;15.25;10.23;;;6.70;99.90;;;;;;4972379;28;20173;-40
2023/04/10 04:15:22;;;;;;;15.60;10.50;;;6.60;99.90;;;;;;4972304;28;20220;-40
2023/04/10 04:17:49;;;;;;;16.45;10.30;;;;;;;;;;4972843;28;20208;-40
2023/04/10 04:20:14;;;;;;;13.55;9.95;;;6.60;99.90;;;;;;4972554;28;20209;-40
2023/04/10 04:22:40;;;;;;;19.15;11.48;;;6.70;99.90;;;;;;4972861;28;20197;-41
2023/04/10 04:25:09;;;;;;;16.98;10.90;;;6.70;99.90;;;;;;4970870;28;20180;-41
2023/04/10 04:27:35;;;;;;;14.27;9.57;;;6.60;99.90;;;;;;4972223;28;20185;-40
2023/04/10 04:30:01;;;;;;;23.48;13.07;;;6.60;99.90;;;;;;4972148;28;20313;-40
2023/04/10 04:32:27;;;;;;;17.65;9.98;;;6.60;99.90;;;;;;4972114;28;20165;-41
2023/04/10 04:34:52;;;;;;;23.77;12.80;;;6.60;99.90;;;;;;4972123;28;20184;-41
2023/04/10 04:37:18;;;;;;;22.17;10.60;;;;;;;;;;4972196;28;20283;-40
2023/04/10 04:39:44;;;;;;;16.55;9.48;;;6.50;99.90;;;;;;4986067;28;20680;-41
2023/04/10 04:42:09;;;;;;;14.18;9.32;;;6.60;99.90;;;;;;4991603;28;20203;-41
2023/04/10 04:44:35;;;;;;;11.18;8.85;;;6.50;99.90;;;;;;4991323;28;20659;-40
2023/04/10 04:47:00;;;;;;;14.45;9.48;;;6.50;99.90;;;;;;4991467;28;20584;-40
2023/04/10 04:49:26;;;;;;;14.85;9.60;;;6.60;99.90;;;;;;4991331;28;20187;-40
2023/04/10 04:51:52;;;;;;;18.35;10.23;;;6.50;99.90;;;;;;4991310;28;20256;-41
2023/04/10 04:54:18;;;;;;;13.05;8.80;;;;;;;;;;4991447;28;20169;-41
2023/04/10 04:56:43;;;;;;;12.52;8.95;;;6.50;99.90;;;;;;4991160;28;20180;-41
2023/04/10 04:59:09;;;;;;;16.98;9.32;;;;;;;;;;4991469;28;20224;-41
2023/04/10 05:01:35;;;;;;;15.90;9.25;;;6.60;99.90;;;;;;4991088;28;20169;-40
2023/04/10 05:04:00;;;;;;;16.95;10.20;;;6.50;99.90;;;;;;4990995;28;20578;-41
2023/04/10 05:06:26;;;;;;;24.65;13.63;;;6.50;99.90;;;;;;4991152;28;20516;-41
2023/04/10 05:08:52;;;;;;;28.23;13.68;;;6.60;99.90;;;;;;4980576;28;20576;-41
2023/04/10 05:11:18;;;;;;;17.58;10.85;;;;;;;;;;4971443;28;20668;-41
2023/04/10 05:13:43;;;;;;;22.88;12.50;;;6.70;99.90;;;;;;4970389;28;20170;-40
2023/04/10 05:16:09;;;;;;;16.88;10.10;;;6.60;99.90;;;;;;4971878;28;20165;-41
2023/04/10 05:18:35;;;;;;;15.57;9.00;;;6.70;99.90;;;;;;4971428;28;20175;-41
2023/04/10 05:21:00;;;;;;;17.63;9.52;;;6.80;99.90;;;;;;4971593;28;20725;-43
2023/04/10 05:23:26;;;;;;;13.63;9.13;;;6.80;99.90;;;;;;4971603;28;20169;-42
2023/04/10 05:25:52;;;;;;;13.60;9.38;;;;;;;;;;4971594;28;20172;-42
2023/04/10 05:28:18;;;;;;;18.88;9.93;;;6.90;99.90;;;;;;4972596;28;20184;-41
2023/04/10 05:30:43;;;;;;;13.68;8.98;;;6.80;99.90;;;;;;4971495;28;20204;-42
2023/04/10 05:33:09;;;;;;;14.25;9.07;;;6.90;99.90;;;;;;4971846;28;20181;-43
2023/04/10 05:35:34;;;;;;;15.32;9.32;;;6.90;99.90;;;;;;4971287;28;20198;-45
2023/04/10 05:38:00;;;;;;;16.95;9.70;;;;;;;;;;4971459;28;20661;-40
2023/04/10 05:40:27;;;;;;;19.23;10.57;;;7.00;99.90;;;;;;4971250;28;20680;-40
2023/04/10 05:42:52;;;;;;;26.85;12.23;;;6.90;99.90;;;;;;4971337;28;20165;-41
2023/04/10 05:45:18;;;;;;;17.05;10.23;;;7.10;99.90;;;;;;4971064;28;20184;-41
2023/04/10 05:47:43;;;;;;;13.93;8.77;;;7.10;99.90;;;;;;4970222;28;20252;-40
2023/04/10 05:50:09;;;;;;;17.80;9.55;;;7.00;99.90;;;;;;4971329;28;20248;-41
2023/04/10 05:52:35;;;;;;;17.85;9.23;;;;;;;;;;4971124;28;20621;-40
2023/04/10 05:55:01;;;;;;;12.70;8.63;;;7.20;99.90;;;;;;4971006;28;20169;-44
2023/04/10 05:57:28;;;;;;;11.32;8.00;;;7.20;99.90;;;;;;4970903;28;20260;-44
2023/04/10 05:59:54;;;;;;;15.45;10.18;;;7.20;99.90;;;;;;4971068;28;20296;-44
2023/04/10 06:02:20;;;;;;;12.63;7.95;;;7.40;99.90;;;;;;4971384;28;20256;-45
2023/04/10 06:04:46;;;;;;;15.30;9.35;;;7.30;99.90;;;;;;4971350;28;20513;-44
2023/04/10 06:07:12;;;;;;;11.70;8.98;;;;;;;;;;4973685;28;20261;-44
2023/04/10 06:09:37;;;;;;;15.63;9.68;;;7.30;99.90;;;;;;4990738;28;20228;-44
2023/04/10 06:12:03;;;;;;;14.70;8.90;;;7.40;99.90;;;;;;4990329;28;20256;-44
2023/04/10 06:14:28;;;;;;;11.65;8.48;;;7.60;99.90;;;;;;4990262;28;20175;-42
2023/04/10 06:16:54;;;;;;;12.57;8.43;;;7.50;99.90;;;;;;4987756;28;20234;-41
2023/04/10 06:19:20;;;;;;;11.65;8.35;;;7.70;99.90;;;;;;4989898;28;20216;-41
2023/04/10 06:21:45;;;;;;;11.50;8.63;;;7.80;99.90;;;;;;4989958;28;20183;-42
2023/04/10 06:24:12;;;;;;;11.02;8.48;;;;;;;;;;4990459;28;20172;-41
2023/04/10 06:26:38;;;;;;;12.57;8.57;;;7.90;99.90;;;;;;4989826;28;20180;-41
2023/04/10 06:29:04;;;;;;;13.40;8.20;;;8.10;99.90;;;;;;4974820;28;20177;-41
2023/04/10 06:31:32;;;;;;;12.55;8.13;;;8.30;99.90;;;;;;4989442;28;20177;-41
2023/04/10 06:33:58;;;;;;;11.15;8.13;;;8.40;99.90;;;;;;4989864;28;20180;-41
2023/04/10 06:36:24;;;;;;;11.40;8.70;;;8.50;99.90;;;;;;4989773;28;20165;-40
2023/04/10 06:38:50;;;;;;;9.48;7.43;;;8.70;99.90;;;;;;4989555;28;20564;-41
2023/04/10 06:41:15;;;;;;;11.32;7.55;;;8.70;99.90;;;;;;4989691;28;20177;-41
2023/04/10 06:43:41;;;;;;;12.05;8.05;;;;;;;;;;4989654;28;20627;-41
2023/04/10 06:46:07;;;;;;;14.57;8.23;;;8.90;99.90;;;;;;4990028;28;20197;-41
2023/04/10 06:48:33;;;;;;;17.73;10.38;;;9.20;99.90;;;;;;4971665;28;20629;-41
2023/04/10 06:51:01;;;;;;;11.90;8.05;;;9.30;99.90;;;;;;4970468;28;20249;-41
2023/04/10 06:53:27;;;;;;;10.95;8.40;;;9.30;99.90;;;;;;4970465;28;20260;-43
2023/04/10 06:55:53;;;;;;;10.50;7.82;;;9.40;99.90;;;;;;4968950;28;20212;-44
2023/04/10 06:58:19;;;;;;;9.70;7.35;;;9.60;99.90;;;;;;4970158;28;20172;-44
2023/04/10 07:00:45;;;;;;;9.38;7.50;;;;;;;;;;4970104;28;20304;-43
2023/04/10 07:03:11;;;;;;;13.05;7.20;;;;;;;;;;4970612;28;20201;-42
2023/04/10 07:05:37;;;;;;;9.90;8.13;;;9.80;99.90;;;;;;4970750;28;20201;-43
2023/04/10 07:08:03;;;;;;;13.90;7.65;;;;;;;;;;4981412;28;20259;-42
2023/04/10 07:10:28;;;;;;;9.13;7.72;;;9.80;99.90;;;;;;4989284;28;20221;-42
2023/04/10 07:12:56;;;;;;;10.07;7.68;;;9.90;99.90;;;;;;4989361;28;20168;-43
2023/04/10 07:15:21;;;;;;;10.40;7.63;;;10.20;99.90;;;;;;4989346;28;20260;-43
2023/04/10 07:17:47;;;;;;;10.13;7.60;;;10.30;99.90;;;;;;4987636;28;20576;-44
2023/04/10 07:20:12;;;;;;;11.23;7.45;;;10.40;99.90;;;;;;4988315;28;20231;-41
2023/04/10 07:22:38;;;;;;;9.38;7.75;;;;;;;;;;4989603;28;20222;-40
2023/04/10 07:25:06;;;;;;;9.63;7.93;;;;;;;;;;4989038;28;20173;-41
2023/04/10 07:27:31;;;;;;;9.35;7.53;;;;;;;;;;4989662;28;20507;-40
2023/04/10 07:29:57;;;;;;;11.57;6.90;;;10.60;99.90;;;;;;4992437;28;20218;-40
2023/04/10 07:32:23;;;;;;;10.35;7.20;;;10.70;99.90;;;;;;4992575;28;20633;-40
2023/04/10 07:34:49;;;;;;;7.90;6.82;;;;;;;;;;4992649;28;20208;-41
2023/04/10 07:37:15;;;;;;;8.40;7.07;;;10.50;99.90;;;;;;4992530;28;20179;-40
2023/04/10 07:39:41;;;;;;;9.48;7.43;;;;;;;;;;4992327;28;20622;-41
2023/04/10 07:42:07;;;;;;;9.38;7.05;;;10.70;99.90;;;;;;4992787;28;20177;-41
2023/04/10 07:44:32;;;;;;;11.45;7.60;;;10.90;99.90;;;;;;4992471;28;20169;-40
2023/04/10 07:46:58;;;;;;;10.85;7.57;;;;;;;;;;4992083;28;20173;-41
2023/04/10 07:49:24;;;;;;;9.85;7.53;;;11.10;99.90;;;;;;4973058;28;20252;-41
2023/04/10 07:51:49;;;;;;;8.88;7.55;;;11.20;99.90;;;;;;4972657;28;20170;-40
2023/04/10 07:54:15;;;;;;;10.02;7.57;;;11.30;99.90;;;;;;4972707;28;20529;-40
2023/04/10 07:56:41;;;;;;;7.60;6.80;;;;;;;;;;4973064;28;20173;-41
2023/04/10 07:59:07;;;;;;;8.85;7.38;;;;;;;;;;4972869;28;20661;-41
2023/04/10 08:01:33;;;;;;;10.07;8.00;;;11.60;99.90;;;;;;4972721;28;20208;-40
2023/04/10 08:03:58;;;;;;;8.90;7.07;;;11.70;99.90;;;;;;4972470;28;20197;-41
2023/04/10 08:06:24;;;;;;;9.48;6.88;;;;;;;;;;4972383;28;20169;-40
2023/04/10 08:08:53;;;;;;;11.77;6.78;;;11.80;99.90;;;;;;4990932;28;20207;-41
2023/04/10 08:11:23;;;;;;;10.68;6.38;;;12.00;99.90;;;;;;4992006;28;20177;-41
2023/04/10 08:13:50;;;;;;;7.88;6.30;;;12.10;99.90;;;;;;4991768;28;20169;-41
2023/04/10 08:16:16;;;;;;;12.15;6.85;;;;;;;;;;4991803;28;20196;-41
2023/04/10 08:18:42;;;;;;;15.50;6.75;;;12.10;99.90;;;;;;4991746;28;20203;-40
2023/04/10 08:21:07;;;;;;;7.20;6.28;;;12.20;99.90;;;;;;4992170;28;20593;-40
2023/04/10 08:23:33;;;;;;;9.25;6.70;;;;;;;;;;4991741;28;20628;-41
2023/04/10 08:25:59;;;;;;;7.13;6.20;;;;;;;;;;4991879;28;20758;-40
2023/04/10 08:28:25;;;;;;;10.77;6.88;;;12.50;99.90;;;;;;4991605;28;20559;-40
2023/04/10 08:30:52;;;;;;;7.30;6.53;;;12.30;99.90;;;;;;4991765;28;20248;-40
2023/04/10 08:33:18;;;;;;;7.47;6.43;;;12.60;99.90;;;;;;4991584;28;20168;-40
2023/04/10 08:35:47;;;;;;;10.18;6.35;;;12.80;99.90;;;;;;4991493;28;20179;-41
2023/04/10 08:38:13;;;;;;;7.80;5.70;;;12.70;99.90;;;;;;4977215;28;20706;-40
2023/04/10 08:40:39;;;;;;;6.95;6.10;;;12.80;99.90;;;;;;4988716;28;20220;-41
2023/04/10 08:43:05;;;;;;;8.38;6.38;;;;;;;;;;4991401;28;20203;-41
2023/04/10 08:45:30;;;;;;;7.05;6.00;;;13.00;99.90;;;;;;4991127;28;20596;-41
2023/04/10 08:48:01;;;;;;;6.70;5.90;;;12.90;99.90;;;;;;4990724;28;20208;-41
2023/04/10 08:50:30;;;;;;;9.40;5.88;;;12.80;99.90;;;;;;4990956;28;20183;-41
2023/04/10 08:53:01;;;;;;;7.88;6.15;;;12.70;99.90;;;;;;4991076;28;20181;-41
2023/04/10 08:55:27;;;;;;;7.75;5.97;;;;;;;;;;4990820;28;20222;-41
2023/04/10 08:57:53;;;;;;;7.80;6.32;;;12.80;99.90;;;;;;4990861;28;20173;-41
2023/04/10 09:00:19;;;;;;;7.65;5.97;;;13.00;99.90;;;;;;4990755;28;20296;-41
2023/04/10 09:02:45;;;;;;;6.72;5.82;;;13.10;99.90;;;;;;4990999;28;20252;-41
2023/04/10 09:05:11;;;;;;;9.10;5.88;;;13.30;99.90;;;;;;4990601;28;20207;-40
2023/04/10 09:07:38;;;;;;;6.22;5.60;;;;;;;;;;4978293;28;20597;-41
2023/04/10 09:10:04;;;;;;;6.25;5.32;;;;;;;;;;4971228;28;20177;-41
2023/04/10 09:12:43;;;;;;;6.82;5.95;;;13.70;99.90;;;;;;4971164;28;20201;-41
2023/04/10 09:15:09;;;;;;;14.30;5.50;;;13.80;99.90;;;;;;4971368;28;20173;-42
2023/04/10 09:17:35;;;;;;;6.80;6.10;;;14.00;99.90;;;;;;4971086;28;20263;-41
2023/04/10 09:20:00;;;;;;;6.80;6.10;;;14.10;99.90;;;;;;4971093;28;20561;-41
2023/04/10 09:22:30;;;;;;;7.10;5.20;;;14.20;99.90;;;;;;4971312;28;20177;-43
2023/04/10 09:24:58;;;;;;;6.90;5.57;;;14.00;99.90;;;;;;4971374;28;20176;-44
2023/04/10 09:27:32;;;;;;;7.15;6.15;;;13.90;99.90;;;;;;4971447;28;20256;-44
2023/04/10 09:29:58;;;;;;;5.85;5.32;;;14.20;99.90;;;;;;4970854;28;20173;-41
2023/04/10 09:32:42;;;;;;;7.13;5.72;;;14.30;99.90;;;;;;4970808;28;20177;-41
2023/04/10 09:35:09;;;;;;;7.57;6.07;;;14.30;99.90;;;;;;4971536;28;20181;-41
2023/04/10 09:37:35;;;;;;;7.93;5.57;;;14.60;99.90;;;;;;4971206;28;20249;-40
2023/04/10 09:40:02;;;;;;;6.75;5.65;;;14.80;99.90;;;;;;4970600;28;20363;-42
2023/04/10 09:42:31;;;;;;;6.50;5.78;;;14.70;99.90;;;;;;4971182;28;20210;-41
2023/04/10 09:44:57;;;;;;;6.10;5.50;;;14.80;99.90;;;;;;4971436;28;20184;-41
2023/04/10 09:47:22;;;;;;;8.15;5.35;;;;;;;;;;4970990;28;20169;-41
2023/04/10 09:49:51;;;;;;;7.45;5.55;;;15.00;99.90;;;;;;4971167;28;20242;-41
2023/04/10 09:52:27;;;;;;;7.25;6.25;;;15.00;99.90;;;;;;4970080;28;20173;-41
2023/04/10 09:54:59;;;;;;;7.32;6.63;;;15.40;99.90;;;;;;4971640;28;20188;-41
2023/04/10 09:57:27;;;;;;;5.82;5.18;;;15.50;99.90;;;;;;4970969;28;20614;-41
2023/04/10 09:59:57;;;;;;;7.55;5.07;;;15.50;99.90;;;;;;4969722;28;20220;-41
2023/04/10 10:02:27;;;;;;;5.82;5.32;;;15.50;99.90;;;;;;4970757;28;20170;-41
2023/04/10 10:04:54;;;;;;;5.35;4.85;;;15.40;99.90;;;;;;4970767;28;20174;-43
2023/04/10 10:07:21;;;;;;;9.55;4.90;;;15.50;99.90;;;;;;4981602;28;20185;-41
2023/04/10 10:09:50;;;;;;;9.05;5.28;;;15.50;99.90;;;;;;4989889;28;20688;-41
2023/04/10 10:12:21;;;;;;;5.82;4.75;;;15.70;99.90;;;;;;4990343;28;20191;-41
2023/04/10 10:15:00;;;;;;;5.05;4.35;;;16.00;99.90;;;;;;4990229;28;20173;-41
2023/04/10 10:17:35;;;;;;;4.78;4.35;;;15.90;99.90;;;;;;4989931;28;20183;-41
2023/04/10 10:20:10;;;;;;;8.20;5.32;;;16.20;99.90;;;;;;4988734;28;20298;-41
2023/04/10 10:22:36;;;;;;;7.90;4.80;;;16.40;99.90;;;;;;4989015;28;20225;-41
2023/04/10 10:25:03;;;;;;;6.38;4.60;;;;;;;;;;4990166;28;20181;-41
2023/04/10 10:27:33;;;;;;;6.82;4.60;;;16.60;99.90;;;;;;4989842;28;20198;-41
2023/04/10 10:29:59;;;;;;;5.65;4.80;;;16.40;99.90;;;;;;4989841;28;20173;-41
2023/04/10 10:32:26;;;;;;;8.00;4.78;;;16.40;99.90;;;;;;4989948;28;20168;-41
2023/04/10 10:34:52;;;;;;;5.28;4.78;;;16.50;99.90;;;;;;4989696;28;20180;-41
2023/04/10 10:37:20;;;;;;;5.78;4.60;;;16.50;99.90;;;;;;4977541;28;20227;-42
2023/04/10 10:40:05;;;;;;;5.03;4.53;;;16.50;99.90;;;;;;4970343;28;20197;-41
2023/04/10 10:42:45;;;;;;;6.15;4.38;;;16.30;99.90;;;;;;4970170;28;20549;-41
2023/04/10 10:45:22;;;;;;;7.20;4.63;;;16.40;99.00;;;;;;4970211;28;20173;-41
2023/04/10 10:47:53;;;;;;;3.92;3.58;;;16.50;99.40;;;;;;4970373;28;20251;-40
2023/04/10 10:50:20;;;;;;;5.38;4.70;;;16.50;99.90;;;;;;4970137;28;20264;-41
2023/04/10 10:52:52;;;;;;;4.97;4.47;;;16.60;99.90;;;;;;4985191;28;20747;-41
2023/04/10 10:55:20;;;;;;;4.82;4.43;;;16.40;99.90;;;;;;4989915;28;20191;-40
2023/04/10 10:57:48;;;;;;;9.30;3.60;;;16.50;99.00;;;;;;4989449;28;20177;-41
2023/04/10 11:00:15;;;;;;;4.70;3.90;;;16.30;99.60;;;;;;4989514;28;20216;-42
2023/04/10 11:02:41;;;;;;;4.82;4.10;;;;;;;;;;4988883;28;20176;-41
2023/04/10 11:05:08;;;;;;;5.18;4.07;;;;;;;;;;4989868;28;20173;-41
2023/04/10 11:08:06;;;;;;;6.75;5.18;;;16.60;98.70;;;;;;4976246;28;20177;-41
2023/04/10 11:11:07;;;;;;;5.18;4.07;;;16.60;99.60;;;;;;5012944;28;20197;-41
2023/04/10 11:13:40;;;;;;;4.20;3.72;;;16.50;99.90;;;;;;4970161;28;20174;-41
2023/04/10 11:16:09;;;;;;;4.78;2.70;;;16.50;97.60;;;;;;4969045;28;20593;-43
2023/04/10 11:18:44;;;;;;;4.88;2.88;;;16.70;95.80;;;;;;4970273;28;20200;-41
2023/04/10 11:21:13;;;;;;;3.30;3.00;;;16.70;93.50;;;;;;4969121;28;20227;-41
2023/04/10 11:23:51;;;;;;;2.75;2.55;;;16.70;93.50;;;;;;4970417;28;20173;-41
2023/04/10 11:26:40;;;;;;;7.93;2.58;;;16.90;93.60;;;;;;4969881;28;20181;-40
2023/04/10 11:29:25;;;;;;;2.55;2.30;;;16.80;93.20;;;;;;4970293;28;20227;-44
2023/04/10 11:32:00;;;;;;;3.45;2.40;;;16.60;92.30;;;;;;4969920;28;20252;-45
2023/04/10 11:34:27;;;;;;;6.28;2.22;;;16.60;93.00;;;;;;4969805;28;20223;-43
2023/04/10 11:36:53;;;;;;;7.22;2.50;;;16.70;93.00;;;;;;4975922;28;20193;-45
2023/04/10 11:39:20;;;;;;;4.50;2.50;;;16.70;92.60;;;;;;4989207;28;20204;-44
2023/04/10 11:41:48;;;;;;;2.80;2.60;;;16.70;93.80;;;;;;4988092;28;20546;-41
2023/04/10 11:44:16;;;;;;;4.35;2.70;;;16.90;94.20;;;;;;4989101;28;20173;-41
2023/04/10 11:46:50;;;;;;;2.42;2.22;;;16.70;92.00;;;;;;4987729;28;20637;-42
2023/04/10 11:49:25;;;;;;;3.13;2.60;;;16.90;90.80;;;;;;4988948;28;20252;-44
2023/04/10 11:51:51;;;;;;;2.60;2.40;;;16.90;91.30;;;;;;4989267;28;20169;-42
2023/04/10 11:54:19;;;;;;;2.83;2.55;;;17.00;90.00;;;;;;4988978;28;20183;-42
2023/04/10 11:56:53;;;;;;;3.45;2.30;;;17.10;88.50;;;;;;4988915;28;20225;-41
2023/04/10 11:59:19;;;;;;;2.72;2.25;;;17.10;90.60;;;;;;4988853;28;20569;-42
2023/04/10 12:01:46;;;;;;;3.55;2.40;;;17.10;91.70;;;;;;4988593;28;20248;-42
2023/04/10 12:04:19;;;;;;;2.63;2.42;;;17.30;90.30;;;;;;4988810;28;20183;-41
2023/04/10 12:06:52;;;;;;;2.88;2.63;;;17.40;90.40;;;;;;4980226;28;20197;-41
2023/04/10 12:09:20;;;;;;;2.95;2.65;;;17.40;90.40;;;;;;4969422;28;20642;-43
2023/04/10 12:12:00;;;;;;;4.03;2.75;;;17.40;89.60;;;;;;4969158;28;20169;-42
2023/04/10 12:14:34;;;;;;;2.78;2.40;;;17.20;88.70;;;;;;4969786;28;20250;-42
2023/04/10 12:17:01;;;;;;;5.35;3.55;;;17.40;89.70;;;;;;4972687;28;20176;-42
2023/04/10 12:19:27;;;;;;;4.93;2.67;;;17.60;88.50;;;;;;4972352;28;20194;-42
2023/04/10 12:21:53;;;;;;;2.67;2.42;;;17.60;89.80;;;;;;4971579;28;20184;-42
2023/04/10 12:24:48;;;;;;;3.80;2.60;;;17.60;88.80;;;;;;4972151;28;20177;-42
2023/04/10 12:27:27;;;;;;;5.78;3.03;;;17.80;90.10;;;;;;4972301;28;20202;-42
2023/04/10 12:29:56;;;;;;;2.47;2.15;;;17.80;87.90;;;;;;4972381;28;20307;-43
2023/04/10 12:32:23;;;;;;;2.47;2.28;;;17.80;86.20;;;;;;4972230;28;20173;-41
2023/04/10 12:34:56;;;;;;;3.25;2.90;;;18.00;85.40;;;;;;4972170;28;20184;-42
2023/04/10 12:37:21;;;;;;;3.03;2.60;;;18.20;86.20;;;;;;4985011;28;20274;-41
2023/04/10 12:39:47;;;;;;;2.67;2.20;;;18.40;87.20;;;;;;4990665;28;20250;-42
2023/04/10 12:42:25;;;;;;;4.63;3.20;;;18.20;86.10;;;;;;4990988;28;20173;-42
2023/04/10 12:44:59;;;;;;;6.07;2.63;;;18.60;87.40;;;;;;4990939;28;20186;-43
2023/04/10 12:47:26;;;;;;;3.17;2.88;;;;;;;;;;4991001;28;20648;-42
2023/04/10 12:50:10;;;;;;;2.63;2.10;;;18.50;84.50;;;;;;4990994;28;20172;-42
2023/04/10 12:52:37;;;;;;;3.67;2.47;;;18.40;83.90;;;;;;4991613;28;20173;-42
2023/04/10 12:55:30;;;;;;;3.05;2.40;;;18.30;84.80;;;;;;4991022;28;20645;-42
2023/04/10 12:57:55;;;;;;;2.78;2.58;;;18.40;86.10;;;;;;4993298;28;20181;-42
2023/04/10 13:00:21;;;;;;;2.90;2.60;;;18.40;84.10;;;;;;4990631;28;20216;-41
2023/04/10 13:02:47;;;;;;;2.42;2.22;;;18.40;85.30;;;;;;4991125;28;20633;-42
2023/04/10 13:05:14;;;;;;;3.75;2.25;;;;;;;;;;4990713;28;20238;-42
2023/04/10 13:07:39;;;;;;;2.75;2.53;;;18.60;86.60;;;;;;4973421;28;20256;-41
2023/04/10 13:10:06;;;;;;;4.03;2.50;;;18.50;83.50;;;;;;4971834;28;20272;-41